M I D A S
Marine Information and Data Acquisition System
Tripno 1911 of the Zeeleeuw from 2010-06-30 05:02:48 to 2010-06-30 15:26:22
Back to CruiseResearch ActivitiesStationsMapUnderway DataData graphs

EquipmentUnitsComment
TimeDGPSUTC
LatitudeDGPSDM.mWGS84
LongitudeDGPSDM.mWGS84
HeadingGyrodeg 
SOGDGPSknotsSpeed over ground
COGDGPSdegCourse over ground
DepthEcho soundermeters200 kHz
Missing or incorrect values are displayed as -999
Navigation data collected by the RV Zeeleeuw from 2010-06-30 04:56:18 to 2010-06-30 15:37:12
                                                                                    Next 1000 lines
Time Latitude Longitude Heading SOG COG Depth
2010-06-30 04:56:29 51°13.661 2°55.957 108.8 0.6 287 7.7
2010-06-30 04:56:34 51°13.661 2°55.956 108.3 0.8 287 7.6
2010-06-30 04:56:38 51°13.662 2°55.954 108.1 0.9 289 7.7
2010-06-30 04:56:44 51°13.662 2°55.952 108.1 1.1 289 7.8
2010-06-30 04:56:49 51°13.663 2°55.949 108.2 1.2 291 7.8
2010-06-30 04:56:54 51°13.663 2°55.946 108.6 1.3 288 7.8
2010-06-30 04:56:59 51°13.664 2°55.943 109 1.6 290 -999
2010-06-30 04:57:05 51°13.664 2°55.938 109.7 1.9 290 -999
2010-06-30 04:57:11 51°13.666 2°55.933 110.2 2.1 291 -999
2010-06-30 04:57:17 51°13.667 2°55.927 110.5 2.4 291 -999
2010-06-30 04:57:22 51°13.668 2°55.921 110.9 2.6 290 -999
2010-06-30 04:57:28 51°13.67 2°55.914 111.1 2.8 291 -999
2010-06-30 04:57:32 51°13.671 2°55.909 111.4 3 290 -999
2010-06-30 04:57:37 51°13.673 2°55.903 111.9 3.1 291 -999
2010-06-30 04:57:43 51°13.675 2°55.895 112.3 3.3 291 -999
2010-06-30 04:57:47 51°13.676 2°55.889 112.8 3.4 291 -999
2010-06-30 04:57:52 51°13.678 2°55.882 113.3 3.5 292 -999
2010-06-30 04:57:57 51°13.68 2°55.874 113.6 3.7 291 -999
2010-06-30 04:58:03 51°13.682 2°55.865 113.8 3.7 293 -999
2010-06-30 04:58:08 51°13.684 2°55.857 113.8 3.8 292 -999
2010-06-30 04:58:13 51°13.686 2°55.85 113.8 3.8 293 -999
2010-06-30 04:58:17 51°13.688 2°55.844 113.8 3.9 293 -999
2010-06-30 04:58:23 51°13.691 2°55.834 113.7 3.9 293 -999
2010-06-30 04:58:28 51°13.693 2°55.826 113.6 4 293 -999
2010-06-30 04:58:32 51°13.695 2°55.819 113.5 4.1 294 -999
2010-06-30 04:58:37 51°13.697 2°55.811 113.4 4.1 294 -999
2010-06-30 04:58:42 51°13.7 2°55.803 113.4 4.2 295 -999
2010-06-30 04:58:48 51°13.703 2°55.793 113.4 4.2 295 -999
2010-06-30 04:58:53 51°13.705 2°55.785 113.3 4.1 295 -999
2010-06-30 04:58:57 51°13.707 2°55.778 113.3 4.1 296 -999
2010-06-30 04:59:02 51°13.709 2°55.77 113 3.9 296 -999
2010-06-30 04:59:07 51°13.711 2°55.764 113 3.3 296 -999
2010-06-30 04:59:13 51°13.713 2°55.758 111.9 2.6 297 -999
2010-06-30 04:59:17 51°13.714 2°55.755 109.5 1.6 301 -999
2010-06-30 04:59:23 51°13.715 2°55.755 106.3 0.7 322 -999
2010-06-30 04:59:27 51°13.716 2°55.756 100.6 0.7 44 -999
2010-06-30 04:59:33 51°13.716 2°55.759 91.7 1.2 72 -999
2010-06-30 04:59:37 51°13.717 2°55.76 83.1 1.2 57 -999
2010-06-30 04:59:42 51°13.717 2°55.762 77.4 0.8 63 -999
2010-06-30 04:59:47 51°13.718 2°55.763 72.5 0.4 35 -999
2010-06-30 04:59:52 51°13.718 2°55.762 69.1 0.2 276 -999
2010-06-30 04:59:57 51°13.717 2°55.761 66.1 0.6 257 -999
2010-06-30 05:00:03 51°13.717 2°55.758 64 1.1 248 -999
2010-06-30 05:00:08 51°13.716 2°55.755 61.9 1.4 245 -999
2010-06-30 05:00:12 51°13.715 2°55.752 60.1 1.8 243 14.3
2010-06-30 05:00:17 51°13.713 2°55.748 59.2 2 242 14.9
2010-06-30 05:00:23 51°13.711 2°55.743 57.9 2.4 240 -999
2010-06-30 05:00:28 51°13.71 2°55.738 56 2.6 238 -999
2010-06-30 05:00:32 51°13.708 2°55.734 54.5 2.6 236 -999
2010-06-30 05:00:37 51°13.706 2°55.729 53.3 2.5 235 -999
2010-06-30 05:00:42 51°13.704 2°55.725 52.7 2.2 236 -999
2010-06-30 05:00:48 51°13.703 2°55.722 52.3 1.6 234 -999
2010-06-30 05:00:53 51°13.702 2°55.72 50.5 0.9 241 -999
2010-06-30 05:00:57 51°13.702 2°55.72 47.9 0.2 286 -999
2010-06-30 05:01:02 51°13.703 2°55.721 43.4 0.8 21 -999
2010-06-30 05:01:08 51°13.706 2°55.722 37.2 1.5 23 -999
2010-06-30 05:01:13 51°13.709 2°55.723 27.6 2.3 14 -999
2010-06-30 05:01:17 51°13.712 2°55.724 18.8 2.9 9 -999
2010-06-30 05:01:22 51°13.716 2°55.725 11.8 3 1 -999
2010-06-30 05:01:27 51°13.721 2°55.724 3.3 3.1 354 -999
2010-06-30 05:01:33 51°13.726 2°55.722 355.6 3.1 349 -999
2010-06-30 05:01:37 51°13.73 2°55.72 349.6 3.3 344 -999
2010-06-30 05:01:42 51°13.734 2°55.717 344.5 3.5 338 14
2010-06-30 05:01:47 51°13.739 2°55.713 339 3.8 332 14.2
2010-06-30 05:01:52 51°13.744 2°55.709 333.4 4 330 -999
2010-06-30 05:01:57 51°13.749 2°55.704 330.5 4.4 329 13.5
2010-06-30 05:02:02 51°13.754 2°55.698 329.4 4.6 329 13.5
2010-06-30 05:02:07 51°13.76 2°55.692 329 4.9 328 13.4
2010-06-30 05:02:12 51°13.767 2°55.687 329.3 5.2 330 13.5
2010-06-30 05:02:17 51°13.773 2°55.68 330.3 5.5 329 13.5
2010-06-30 05:02:21 51°13.779 2°55.675 330.3 5.7 329 13.4
2010-06-30 05:02:26 51°13.785 2°55.668 330.3 5.9 329 13.2
2010-06-30 05:02:31 51°13.793 2°55.662 330.4 6 330 13.1
2010-06-30 05:02:36 51°13.8 2°55.655 331.1 6.2 331 13.1
2010-06-30 05:02:41 51°13.808 2°55.649 331.8 6.3 331 13.1
2010-06-30 05:02:45 51°13.815 2°55.643 332.5 6.5 332 13.1
2010-06-30 05:02:50 51°13.823 2°55.637 333.6 6.6 333 13
2010-06-30 05:02:55 51°13.831 2°55.63 334.5 6.6 334 13
2010-06-30 05:03:00 51°13.839 2°55.623 335 6.7 334 12.9
2010-06-30 05:03:05 51°13.847 2°55.617 335.6 6.8 335 12.7
2010-06-30 05:03:09 51°13.854 2°55.611 336.9 6.9 336 12.7
2010-06-30 05:03:15 51°13.864 2°55.604 337.6 7 336 12.3
2010-06-30 05:03:19 51°13.872 2°55.599 337.5 7 335 12
2010-06-30 05:03:25 51°13.882 2°55.591 336.6 7.1 335 11.9
2010-06-30 05:03:29 51°13.89 2°55.585 336.1 7.1 335 12.1
2010-06-30 05:03:34 51°13.899 2°55.579 336.2 7.2 335 12.3
2010-06-30 05:03:39 51°13.908 2°55.572 336.3 7.2 335 12.5
2010-06-30 05:03:44 51°13.917 2°55.565 336.3 7.2 335 12.6
2010-06-30 05:03:49 51°13.926 2°55.558 336.1 7.3 335 12.5
2010-06-30 05:03:54 51°13.935 2°55.551 336.1 7.3 335 12.5
2010-06-30 05:03:59 51°13.945 2°55.545 336.9 7.3 336 12.5
2010-06-30 05:04:04 51°13.954 2°55.538 337 7.3 335 12.5
2010-06-30 05:04:09 51°13.963 2°55.531 336.6 7.4 335 12.5
2010-06-30 05:04:13 51°13.971 2°55.526 335.7 7.4 334 12.5
2010-06-30 05:04:19 51°13.982 2°55.517 335.4 7.4 335 12.5
2010-06-30 05:04:24 51°13.991 2°55.51 335.4 7.4 334 12.4
2010-06-30 05:04:29 51°14 2°55.503 334.9 7.4 333 12.3
2010-06-30 05:04:34 51°14.009 2°55.495 334.8 7.4 334 12.3
2010-06-30 05:04:39 51°14.019 2°55.488 335.3 7.4 334 12
2010-06-30 05:04:44 51°14.028 2°55.481 335.7 7.5 335 12.4
2010-06-30 05:04:49 51°14.037 2°55.474 335.9 7.5 334 12.1
2010-06-30 05:04:53 51°14.045 2°55.468 335.6 7.5 334 12.3
2010-06-30 05:04:59 51°14.056 2°55.459 335.4 7.5 334 12.3
2010-06-30 05:05:04 51°14.065 2°55.452 335.5 7.5 335 11.5
2010-06-30 05:05:09 51°14.075 2°55.445 336.1 7.5 335 11.6
2010-06-30 05:05:14 51°14.084 2°55.439 336.7 7.5 335 11.7
2010-06-30 05:05:18 51°14.092 2°55.433 336.9 7.5 336 11.7
2010-06-30 05:05:24 51°14.103 2°55.425 336.8 7.5 335 12.1
2010-06-30 05:05:29 51°14.113 2°55.417 336.5 7.7 335 12.4
2010-06-30 05:05:33 51°14.121 2°55.412 336.5 7.9 335 12.3
2010-06-30 05:05:39 51°14.133 2°55.402 336.1 8.1 334 12.4
2010-06-30 05:05:44 51°14.143 2°55.394 335.7 8.3 334 12.4
2010-06-30 05:05:49 51°14.154 2°55.386 335.8 8.4 334 12.3
2010-06-30 05:05:54 51°14.165 2°55.378 336.2 8.6 335 12.7
2010-06-30 05:05:59 51°14.176 2°55.37 336.6 8.7 335 12.2
2010-06-30 05:06:04 51°14.187 2°55.362 336.4 8.9 334 -999
2010-06-30 05:06:09 51°14.198 2°55.352 335.5 9 333 -999
2010-06-30 05:06:15 51°14.212 2°55.341 335.1 9.1 334 -999
2010-06-30 05:06:20 51°14.223 2°55.333 335.8 9.1 334 12.5
2010-06-30 05:06:25 51°14.235 2°55.324 336.1 9.2 335 12.3
2010-06-30 05:06:29 51°14.244 2°55.317 336.4 9.2 334 12.3
2010-06-30 05:06:35 51°14.258 2°55.307 336.4 9.3 334 12.1
2010-06-30 05:06:40 51°14.27 2°55.298 336.1 9.3 334 12.1
2010-06-30 05:06:45 51°14.281 2°55.289 335.8 9.4 335 11.9
2010-06-30 05:06:49 51°14.291 2°55.281 335.8 9.4 334 12.3
2010-06-30 05:06:54 51°14.303 2°55.272 336.2 9.4 335 12.4
2010-06-30 05:06:59 51°14.315 2°55.263 336.5 9.5 334 12.4
2010-06-30 05:07:04 51°14.327 2°55.254 335.8 9.5 334 12.1
2010-06-30 05:07:09 51°14.338 2°55.244 335 9.5 333 11.8
2010-06-30 05:07:13 51°14.348 2°55.236 334 9.5 332 12.5
2010-06-30 05:07:19 51°14.362 2°55.223 333 9.5 331 12.2
2010-06-30 05:07:24 51°14.373 2°55.213 332 9.5 331 12.3
2010-06-30 05:07:29 51°14.385 2°55.203 331.7 9.5 330 12.3
2010-06-30 05:07:33 51°14.394 2°55.194 331.5 9.5 330 12.4
2010-06-30 05:07:38 51°14.405 2°55.184 331 9.5 329 12.4
2010-06-30 05:07:44 51°14.418 2°55.17 329.6 9.6 328 12.3
2010-06-30 05:07:49 51°14.43 2°55.16 329.5 9.9 330 12.3
2010-06-30 05:07:54 51°14.443 2°55.149 332.3 10.3 332 11.7
2010-06-30 05:07:58 51°14.454 2°55.141 335.2 10.9 336 11.7
2010-06-30 05:08:04 51°14.471 2°55.127 335.5 11.6 332 11.7
2010-06-30 05:08:09 51°14.486 2°55.116 335.6 11.9 335 11.4
2010-06-30 05:08:13 51°14.498 2°55.106 336.1 12.2 333 11.5
2010-06-30 05:08:19 51°14.516 2°55.089 334.2 12.5 330 11.3
2010-06-30 05:08:24 51°14.532 2°55.075 332.4 12.8 331 11.4
2010-06-30 05:08:29 51°14.547 2°55.06 331.8 13 328 12.1
2010-06-30 05:08:34 51°14.563 2°55.046 331.1 13.1 330 13.2
2010-06-30 05:08:38 51°14.576 2°55.033 331.6 13.3 329 13.2
2010-06-30 05:08:44 51°14.595 2°55.014 330.8 13.5 328 13
2010-06-30 05:08:49 51°14.61 2°54.997 328.5 13.5 326 13
2010-06-30 05:08:53 51°14.622 2°54.984 327.6 13.4 327 12.9
2010-06-30 05:08:59 51°14.641 2°54.965 328.3 13.5 327 12.9
2010-06-30 05:09:04 51°14.657 2°54.948 327.4 13.5 326 12.8
2010-06-30 05:09:09 51°14.672 2°54.931 326.4 13.5 325 12.6
2010-06-30 05:09:13 51°14.685 2°54.918 326 13.5 326 12.6
2010-06-30 05:09:19 51°14.703 2°54.897 325.3 13.5 325 12.5
2010-06-30 05:09:24 51°14.718 2°54.88 323.8 13.5 324 12.5
2010-06-30 05:09:29 51°14.733 2°54.862 323.4 13.5 325 12.4
2010-06-30 05:09:33 51°14.746 2°54.848 322.6 13.5 323 12.4
2010-06-30 05:09:38 51°14.761 2°54.83 322.3 13.5 324 12.5
2010-06-30 05:09:44 51°14.779 2°54.809 321.9 13.5 323 12.5
2010-06-30 05:09:49 51°14.793 2°54.791 321.4 13.5 323 11.9
2010-06-30 05:09:54 51°14.808 2°54.772 320.2 13.5 322 12.3
2010-06-30 05:09:58 51°14.82 2°54.758 319.9 13.5 323 12.2
2010-06-30 05:10:04 51°14.838 2°54.736 320.5 13.5 323 12.2
2010-06-30 05:10:09 51°14.853 2°54.718 320.7 13.5 323 12.1
2010-06-30 05:10:13 51°14.865 2°54.704 321.1 13.5 324 12.1
2010-06-30 05:10:19 51°14.883 2°54.682 321.1 13.5 322 12.5
2010-06-30 05:10:24 51°14.897 2°54.663 319.9 13.5 320 12.1
2010-06-30 05:10:29 51°14.911 2°54.644 317.6 13.4 319 12.4
2010-06-30 05:10:35 51°14.928 2°54.619 316.4 13.4 317 -999
2010-06-30 05:10:40 51°14.941 2°54.599 315.3 13.4 317 -999
2010-06-30 05:10:45 51°14.955 2°54.579 314.9 13.4 317 11.7
2010-06-30 05:10:50 51°14.969 2°54.559 314.8 13.4 319 11.1
2010-06-30 05:10:55 51°14.983 2°54.542 316.5 13.4 323 11
2010-06-30 05:11:00 51°14.999 2°54.525 319 13.5 326 10.8
2010-06-30 05:11:05 51°15.015 2°54.509 322.8 13.5 326 11
2010-06-30 05:11:09 51°15.027 2°54.495 323.3 13.5 326 11
2010-06-30 05:11:15 51°15.046 2°54.476 323.7 13.5 327 10.9
2010-06-30 05:11:19 51°15.059 2°54.463 325.3 13.6 328 10.9
2010-06-30 05:11:24 51°15.074 2°54.446 325.3 13.5 326 10.9
2010-06-30 05:11:29 51°15.09 2°54.429 323.9 13.5 325 11
2010-06-30 05:11:34 51°15.105 2°54.412 323 13.6 324 10.8
2010-06-30 05:11:39 51°15.12 2°54.395 322.7 13.6 325 10.8
2010-06-30 05:11:44 51°15.135 2°54.377 322.3 13.5 324 10.8
2010-06-30 05:11:49 51°15.151 2°54.36 322.1 13.6 324 10.9
2010-06-30 05:11:53 51°15.163 2°54.345 322.4 13.6 324 11
2010-06-30 05:11:58 51°15.179 2°54.328 322.9 13.7 326 11
2010-06-30 05:12:04 51°15.197 2°54.308 323.6 13.7 326 11
2010-06-30 05:12:09 51°15.213 2°54.291 324.4 13.7 327 11
2010-06-30 05:12:13 51°15.226 2°54.278 324.5 13.7 326 11.1
2010-06-30 05:12:18 51°15.241 2°54.261 324.6 13.6 326 11
2010-06-30 05:12:24 51°15.26 2°54.241 324.7 13.6 326 10.9
2010-06-30 05:12:29 51°15.276 2°54.224 324.4 13.6 325 11
2010-06-30 05:12:34 51°15.291 2°54.207 324.4 13.6 325 11
2010-06-30 05:12:38 51°15.304 2°54.193 324.4 13.6 326 11.1
2010-06-30 05:12:44 51°15.322 2°54.173 324.5 13.6 326 11
2010-06-30 05:12:48 51°15.335 2°54.159 324.9 13.6 326 11
2010-06-30 05:12:53 51°15.35 2°54.143 325.2 13.5 326 10.8
2010-06-30 05:12:59 51°15.369 2°54.122 325.1 13.5 325 11.1
2010-06-30 05:13:04 51°15.384 2°54.105 324.7 13.6 326 11.4
2010-06-30 05:13:09 51°15.4 2°54.089 324.9 13.6 325 11.2
2010-06-30 05:13:14 51°15.415 2°54.072 324.8 13.6 325 11.3
2010-06-30 05:13:18 51°15.428 2°54.058 324.8 13.6 326 11.2
2010-06-30 05:13:24 51°15.446 2°54.038 325 13.6 326 11.5
2010-06-30 05:13:29 51°15.462 2°54.021 325.1 13.6 325 11.4
2010-06-30 05:13:33 51°15.474 2°54.007 324.7 13.6 325 11.7
2010-06-30 05:13:39 51°15.492 2°53.986 324.6 13.6 324 11.6
2010-06-30 05:13:44 51°15.508 2°53.969 324.5 13.5 325 11.4
2010-06-30 05:13:49 51°15.523 2°53.951 324.6 13.5 323 11.7
2010-06-30 05:13:53 51°15.535 2°53.937 324.5 13.5 324 11.5
2010-06-30 05:13:59 51°15.553 2°53.917 324.7 13.5 324 11.7
2010-06-30 05:14:04 51°15.568 2°53.898 323 13.6 322 11.7
2010-06-30 05:14:09 51°15.583 2°53.88 322.3 13.6 323 11.7
2010-06-30 05:14:13 51°15.594 2°53.864 321.2 13.5 320 12
2010-06-30 05:14:18 51°15.609 2°53.846 320.4 13.5 321 11.9
2010-06-30 05:14:24 51°15.626 2°53.822 319.4 13.5 319 12.1
2010-06-30 05:14:29 51°15.64 2°53.803 319 13.5 320 12.1
2010-06-30 05:14:34 51°15.654 2°53.783 318.4 13.5 319 12.1
2010-06-30 05:14:38 51°15.666 2°53.768 318.2 13.5 320 12.1
2010-06-30 05:14:44 51°15.683 2°53.744 318.2 13.5 319 12.2
2010-06-30 05:14:49 51°15.696 2°53.724 317.7 13.6 318 12.2
2010-06-30 05:14:53 51°15.707 2°53.708 317.1 13.5 318 12.3
2010-06-30 05:14:59 51°15.724 2°53.685 317.1 13.4 318 12.3
2010-06-30 05:15:04 51°15.738 2°53.665 317.8 13.5 319 12.5
2010-06-30 05:15:09 51°15.752 2°53.645 318 13.5 318 12.5
2010-06-30 05:15:14 51°15.766 2°53.625 317.8 13.5 319 12.5
2010-06-30 05:15:18 51°15.778 2°53.61 318.1 13.5 319 12.5
2010-06-30 05:15:24 51°15.795 2°53.586 318.2 13.6 319 12.5
2010-06-30 05:15:29 51°15.809 2°53.567 318 13.5 319 12.5
2010-06-30 05:15:33 51°15.82 2°53.551 318 13.5 319 13
2010-06-30 05:15:39 51°15.837 2°53.527 318.2 13.6 319 12.8
2010-06-30 05:15:44 51°15.852 2°53.508 317.8 13.6 319 12.6
2010-06-30 05:15:49 51°15.866 2°53.488 318.2 13.6 320 12.6
2010-06-30 05:15:53 51°15.877 2°53.472 318.1 13.6 319 12.8
2010-06-30 05:15:59 51°15.895 2°53.45 317.8 13.6 320 12.7
2010-06-30 05:16:04 51°15.91 2°53.432 319.2 13.6 323 12.6
2010-06-30 05:16:09 51°15.925 2°53.414 320.5 13.6 323 12.6
2010-06-30 05:16:13 51°15.938 2°53.401 323.1 13.6 328 12.6
2010-06-30 05:16:18 51°15.954 2°53.384 324.7 13.7 327 12.6
2010-06-30 05:16:24 51°15.974 2°53.367 326.7 13.7 333 12.7
2010-06-30 05:16:29 51°15.991 2°53.354 329.6 13.7 333 12.7
2010-06-30 05:16:33 51°16.005 2°53.344 332.5 13.8 337 12.7
2010-06-30 05:16:38 51°16.023 2°53.332 334.7 13.8 337 12.8
2010-06-30 05:16:44 51°16.044 2°53.32 336.4 13.8 341 12.9
2010-06-30 05:16:49 51°16.062 2°53.309 338 13.8 340 12.9
2010-06-30 05:16:53 51°16.077 2°53.302 339.4 13.8 343 12.7
2010-06-30 05:16:58 51°16.095 2°53.293 340.9 13.9 342 12.8
2010-06-30 05:17:04 51°16.118 2°53.283 341.5 14 345 12.9
2010-06-30 05:17:09 51°16.136 2°53.275 342.4 13.9 344 12.9
2010-06-30 05:17:14 51°16.155 2°53.268 342.8 13.9 345 12.9
2010-06-30 05:17:18 51°16.17 2°53.262 343.6 13.9 346 12.9
2010-06-30 05:17:24 51°16.192 2°53.252 343.7 14 345 12.8
2010-06-30 05:17:29 51°16.211 2°53.245 344.1 14 346 12.9
2010-06-30 05:17:33 51°16.226 2°53.238 343.9 14 345 13
2010-06-30 05:17:39 51°16.249 2°53.23 343.8 14 346 12.9
2010-06-30 05:17:44 51°16.267 2°53.222 343.7 13.9 346 12.9
2010-06-30 05:17:49 51°16.286 2°53.214 343.6 14 346 13
2010-06-30 05:17:54 51°16.305 2°53.207 343.5 14 346 13
2010-06-30 05:17:59 51°16.323 2°53.198 343.1 14 345 13.1
2010-06-30 05:18:04 51°16.342 2°53.19 342.6 13.9 345 13
2010-06-30 05:18:09 51°16.36 2°53.181 342.5 13.9 344 13.1
2010-06-30 05:18:13 51°16.375 2°53.175 342.4 13.9 344 13
2010-06-30 05:18:19 51°16.398 2°53.165 342.5 13.9 344 12.9
2010-06-30 05:18:24 51°16.416 2°53.156 342.6 13.9 344 13
2010-06-30 05:18:29 51°16.435 2°53.148 342.5 13.9 344 13
2010-06-30 05:18:33 51°16.449 2°53.141 342.7 13.9 344 13
2010-06-30 05:18:38 51°16.468 2°53.133 343.1 14 345 12.9
2010-06-30 05:18:44 51°16.49 2°53.123 342.9 14 345 12.9
2010-06-30 05:18:49 51°16.509 2°53.115 342.6 14 344 12.9
2010-06-30 05:18:53 51°16.524 2°53.108 342.4 14 344 12.8
2010-06-30 05:18:58 51°16.542 2°53.1 342.5 13.9 345 12.9
2010-06-30 05:19:04 51°16.565 2°53.091 343 13.9 345 12.7
2010-06-30 05:19:09 51°16.584 2°53.083 342.7 14 345 12.7
2010-06-30 05:19:14 51°16.602 2°53.075 342.6 14 346 12.6
2010-06-30 05:19:18 51°16.617 2°53.069 342.7 13.9 345 12.5
2010-06-30 05:19:24 51°16.639 2°53.059 342.4 13.9 345 12.5
2010-06-30 05:19:29 51°16.658 2°53.05 342.4 13.9 344 12.3
2010-06-30 05:19:34 51°16.676 2°53.041 341.3 13.9 343 12.3
2010-06-30 05:19:38 51°16.691 2°53.034 341.3 13.9 343 12.3
2010-06-30 05:19:44 51°16.713 2°53.023 341.2 13.8 342 12.2
2010-06-30 05:19:49 51°16.731 2°53.014 341.2 13.7 343 12.1
2010-06-30 05:19:53 51°16.746 2°53.006 341.6 13.7 342 11.9
2010-06-30 05:19:59 51°16.768 2°52.996 341.7 13.8 344 11.9
2010-06-30 05:20:04 51°16.786 2°52.987 341.8 13.8 343 11.5
2010-06-30 05:20:09 51°16.805 2°52.979 342 13.8 344 11
2010-06-30 05:20:14 51°16.823 2°52.97 342.4 13.8 343 10.6
2010-06-30 05:20:18 51°16.838 2°52.964 342.2 13.6 344 10.3
2010-06-30 05:20:24 51°16.859 2°52.953 342.2 13.6 343 10
2010-06-30 05:20:29 51°16.877 2°52.944 341.6 13.6 342 9.8
2010-06-30 05:20:33 51°16.891 2°52.936 341.2 13.7 342 9.9
2010-06-30 05:20:39 51°16.913 2°52.925 340.7 13.7 342 9.9
2010-06-30 05:20:44 51°16.931 2°52.915 341.1 13.7 341 10.3
2010-06-30 05:20:49 51°16.949 2°52.905 341.1 13.7 342 10.2
2010-06-30 05:20:53 51°16.963 2°52.897 340.3 13.8 340 10.4
2010-06-30 05:20:58 51°16.981 2°52.886 339.2 13.9 340 10.5
2010-06-30 05:21:04 51°17.003 2°52.873 338.6 13.9 339 10.6
2010-06-30 05:21:09 51°17.021 2°52.862 337.5 13.9 338 10.6
2010-06-30 05:21:13 51°17.035 2°52.853 337.4 13.9 339 10.6
2010-06-30 05:21:19 51°17.057 2°52.839 337.1 13.9 338 11
2010-06-30 05:21:24 51°17.075 2°52.828 337 14 339 10.9
2010-06-30 05:21:29 51°17.093 2°52.816 336.3 14 337 10.8
2010-06-30 05:21:34 51°17.111 2°52.804 336.5 13.9 338 10.9
2010-06-30 05:21:38 51°17.125 2°52.795 336.2 13.9 337 11
2010-06-30 05:21:44 51°17.146 2°52.781 336.1 14 338 11.1
2010-06-30 05:21:49 51°17.164 2°52.767 334.4 13.9 334 10.9
2010-06-30 05:21:53 51°17.178 2°52.758 333.6 13.9 336 11
2010-06-30 05:21:59 51°17.198 2°52.741 332.2 13.8 333 11
2010-06-30 05:22:04 51°17.215 2°52.727 331.8 13.8 334 10.9
2010-06-30 05:22:09 51°17.232 2°52.713 331.5 13.8 332 11.2
2010-06-30 05:22:14 51°17.249 2°52.699 330.8 13.8 333 10.9
2010-06-30 05:22:18 51°17.262 2°52.687 330.6 13.8 331 11
2010-06-30 05:22:24 51°17.282 2°52.669 329.5 13.7 330 11
2010-06-30 05:22:29 51°17.298 2°52.654 328.9 13.7 330 11.1
2010-06-30 05:22:33 51°17.312 2°52.641 328.9 13.7 330 11.2
2010-06-30 05:22:39 51°17.331 2°52.623 328.8 13.8 331 11.4
2010-06-30 05:22:44 51°17.348 2°52.608 328.9 13.7 330 11.1
2010-06-30 05:22:49 51°17.364 2°52.593 328.8 13.7 330 11.4
2010-06-30 05:22:53 51°17.377 2°52.58 328.6 13.7 329 11.3
2010-06-30 05:22:58 51°17.394 2°52.564 328.1 13.7 329 11.2
2010-06-30 05:23:04 51°17.413 2°52.545 327.4 13.7 328 11.3
2010-06-30 05:23:09 51°17.429 2°52.529 326.9 13.7 327 11.4
2010-06-30 05:23:13 51°17.442 2°52.516 326.6 13.7 327 11.4
2010-06-30 05:23:18 51°17.457 2°52.499 326.2 13.7 327 11.2
2010-06-30 05:23:24 51°17.477 2°52.479 326.6 13.7 327 11.5
2010-06-30 05:23:29 51°17.492 2°52.463 326.1 13.7 327 11.4
2010-06-30 05:23:34 51°17.508 2°52.446 326 13.7 327 11.4
2010-06-30 05:23:38 51°17.521 2°52.433 326.2 13.6 327 11.5
2010-06-30 05:23:44 51°17.54 2°52.414 326.6 13.6 328 11.5
2010-06-30 05:23:49 51°17.556 2°52.398 326.9 13.6 327 11.6
2010-06-30 05:23:53 51°17.569 2°52.385 326.9 13.6 327 11.5
2010-06-30 05:23:58 51°17.585 2°52.368 326.7 13.6 327 11.5
2010-06-30 05:24:04 51°17.604 2°52.349 326.5 13.6 328 11.5
2010-06-30 05:24:09 51°17.62 2°52.333 327.4 13.7 328 11.5
2010-06-30 05:24:14 51°17.636 2°52.317 327.2 13.6 327 11.4
2010-06-30 05:24:18 51°17.649 2°52.304 327 13.6 328 11.3
2010-06-30 05:24:24 51°17.667 2°52.283 326 13.6 325 11.4
2010-06-30 05:24:29 51°17.683 2°52.266 325.5 13.6 326 11.5
2010-06-30 05:24:33 51°17.695 2°52.252 325.1 13.6 325 11.9
2010-06-30 05:24:39 51°17.714 2°52.231 324.9 13.7 325 12.3
2010-06-30 05:24:44 51°17.73 2°52.214 324.8 13.7 326 12.3
2010-06-30 05:24:49 51°17.745 2°52.197 324.9 13.7 325 12.3
2010-06-30 05:24:53 51°17.758 2°52.184 325.2 13.7 326 12.3
2010-06-30 05:24:59 51°17.776 2°52.162 324.9 13.7 324 12.1
2010-06-30 05:25:04 51°17.792 2°52.145 324.6 13.7 326 12.2
2010-06-30 05:25:09 51°17.808 2°52.128 324.6 13.7 325 12.3
2010-06-30 05:25:13 51°17.82 2°52.114 324.8 13.7 325 12.1
2010-06-30 05:25:18 51°17.836 2°52.097 324.8 13.7 325 12.3
2010-06-30 05:25:24 51°17.854 2°52.076 324.6 13.7 326 12.1
2010-06-30 05:25:29 51°17.87 2°52.059 325 13.7 325 12.1
2010-06-30 05:25:34 51°17.886 2°52.042 324.7 13.7 325 12.5
2010-06-30 05:25:38 51°17.898 2°52.028 324.8 13.6 325 12.1
2010-06-30 05:25:44 51°17.917 2°52.008 325 13.7 326 11.8
2010-06-30 05:25:49 51°17.932 2°51.99 325.2 13.7 325 11.7
2010-06-30 05:25:53 51°17.945 2°51.977 324.8 13.6 325 11.5
2010-06-30 05:25:58 51°17.96 2°51.96 324.9 13.6 325 11.7
2010-06-30 05:26:04 51°17.979 2°51.939 325 13.6 326 11.4
2010-06-30 05:26:09 51°17.994 2°51.922 325 13.6 325 11.4
2010-06-30 05:26:14 51°18.01 2°51.905 324.7 13.6 326 11.6
2010-06-30 05:26:18 51°18.022 2°51.892 325.1 13.6 326 11.5
2010-06-30 05:26:24 51°18.041 2°51.871 325.4 13.7 326 11.7
2010-06-30 05:26:29 51°18.056 2°51.854 325.7 13.6 325 11.6
2010-06-30 05:26:34 51°18.072 2°51.837 325.3 13.6 326 11.6
2010-06-30 05:26:38 51°18.084 2°51.823 325.1 13.6 325 11.8
2010-06-30 05:26:44 51°18.103 2°51.803 325.1 13.6 326 11.8
2010-06-30 05:26:49 51°18.119 2°51.786 325.1 13.6 326 12
2010-06-30 05:26:53 51°18.131 2°51.772 325.3 13.6 326 11.9
2010-06-30 05:26:59 51°18.15 2°51.752 325.2 13.6 326 11.9
2010-06-30 05:27:04 51°18.165 2°51.735 325.2 13.6 325 12.3
2010-06-30 05:27:09 51°18.181 2°51.717 325.1 13.6 325 12.2
2010-06-30 05:27:13 51°18.193 2°51.703 324.4 13.6 325 12.3
2010-06-30 05:27:19 51°18.213 2°51.684 324.5 13.7 326 12.5
2010-06-30 05:27:24 51°18.228 2°51.667 325.1 13.6 326 12.4
2010-06-30 05:27:29 51°18.244 2°51.65 325.3 13.6 326 12.6
2010-06-30 05:27:33 51°18.257 2°51.637 325.4 13.6 326 12.8
2010-06-30 05:27:38 51°18.273 2°51.62 325.1 13.6 326 12.9
2010-06-30 05:27:44 51°18.291 2°51.599 325.2 13.6 326 12.9
2010-06-30 05:27:49 51°18.307 2°51.582 325.2 13.6 325 13
2010-06-30 05:27:53 51°18.319 2°51.568 324.5 13.6 325 13.2
2010-06-30 05:27:58 51°18.335 2°51.551 324.5 13.6 326 13.2
2010-06-30 05:28:04 51°18.354 2°51.531 324.9 13.7 326 13.2
2010-06-30 05:28:09 51°18.369 2°51.513 325.2 13.6 325 13.4
2010-06-30 05:28:13 51°18.381 2°51.5 325.2 13.6 326 13.4
2010-06-30 05:28:19 51°18.4 2°51.48 325.5 13.7 326 13.6
2010-06-30 05:28:24 51°18.416 2°51.463 325.5 13.6 325 13.8
2010-06-30 05:28:29 51°18.432 2°51.446 325.4 13.6 326 13.8
2010-06-30 05:28:34 51°18.447 2°51.429 325.7 13.6 326 14
2010-06-30 05:28:38 51°18.46 2°51.416 325.9 13.6 326 14.1
2010-06-30 05:28:44 51°18.479 2°51.395 325.4 13.6 325 14.2
2010-06-30 05:28:49 51°18.495 2°51.378 325.2 13.6 326 14.4
2010-06-30 05:28:53 51°18.507 2°51.365 325.1 13.7 325 14.5
2010-06-30 05:28:59 51°18.526 2°51.344 324.7 13.6 326 14.5
2010-06-30 05:29:04 51°18.541 2°51.328 325.6 13.6 327 14.6
2010-06-30 05:29:09 51°18.557 2°51.31 325.3 13.7 325 14.8
2010-06-30 05:29:13 51°18.57 2°51.297 324.8 13.6 326 14.7
2010-06-30 05:29:18 51°18.585 2°51.28 325.1 13.6 326 14.8
2010-06-30 05:29:24 51°18.604 2°51.26 325 13.6 326 14.9
2010-06-30 05:29:29 51°18.619 2°51.243 324.9 13.6 325 14.9
2010-06-30 05:29:33 51°18.632 2°51.23 325.2 13.6 326 15
2010-06-30 05:29:39 51°18.651 2°51.209 325.2 13.6 326 15
2010-06-30 05:29:44 51°18.667 2°51.192 325.4 13.6 326 15.1
2010-06-30 05:29:49 51°18.682 2°51.176 325.4 13.6 326 15.2
2010-06-30 05:29:53 51°18.695 2°51.162 325.3 13.6 326 15.2
2010-06-30 05:29:58 51°18.711 2°51.146 325.5 13.6 327 15.2
2010-06-30 05:30:04 51°18.73 2°51.126 325.8 13.6 327 15.4
2010-06-30 05:30:09 51°18.746 2°51.11 325.8 13.6 326 15.4
2010-06-30 05:30:13 51°18.758 2°51.096 325.4 13.6 325 15.4
2010-06-30 05:30:19 51°18.777 2°51.076 325.2 13.6 327 15.5
2010-06-30 05:30:24 51°18.792 2°51.059 325.2 13.6 325 15.5
2010-06-30 05:30:29 51°18.808 2°51.042 325 13.6 325 15.6
2010-06-30 05:30:34 51°18.823 2°51.025 325 13.6 326 15.7
2010-06-30 05:30:38 51°18.836 2°51.011 324.7 13.5 325 15.7
2010-06-30 05:30:44 51°18.854 2°50.99 324.5 13.6 326 15.6
2010-06-30 05:30:49 51°18.869 2°50.972 324.6 13.6 325 15.7
2010-06-30 05:30:53 51°18.881 2°50.959 324.5 13.5 325 15.7
2010-06-30 05:30:59 51°18.9 2°50.938 324.4 13.5 324 15.7
2010-06-30 05:31:04 51°18.915 2°50.921 324.6 13.6 326 15.8
2010-06-30 05:31:09 51°18.931 2°50.904 324.9 13.6 325 15.8
2010-06-30 05:31:14 51°18.946 2°50.887 325 13.6 325 15.7
2010-06-30 05:31:18 51°18.959 2°50.873 325 13.6 325 15.8
2010-06-30 05:31:24 51°18.977 2°50.853 325.1 13.6 326 15.8
2010-06-30 05:31:29 51°18.993 2°50.836 325.2 13.6 325 15.7
2010-06-30 05:31:33 51°19.005 2°50.822 325.8 13.7 326 15.8
2010-06-30 05:31:39 51°19.024 2°50.802 325.3 13.6 325 15.7
2010-06-30 05:31:44 51°19.04 2°50.785 325.1 13.6 326 15.7
2010-06-30 05:31:49 51°19.055 2°50.767 325.3 13.6 325 15.7
2010-06-30 05:31:53 51°19.068 2°50.754 324.9 13.6 325 15.6
2010-06-30 05:31:59 51°19.086 2°50.733 325 13.6 325 15.5
2010-06-30 05:32:04 51°19.102 2°50.716 325 13.6 325 15.5
2010-06-30 05:32:09 51°19.117 2°50.698 324.7 13.6 325 15.3
2010-06-30 05:32:13 51°19.13 2°50.685 324.8 13.6 326 15.3
2010-06-30 05:32:18 51°19.145 2°50.667 325.3 13.6 324 15.3
2010-06-30 05:32:24 51°19.164 2°50.647 324.9 13.6 326 15.3
2010-06-30 05:32:29 51°19.179 2°50.629 324.8 13.6 324 15
2010-06-30 05:32:34 51°19.194 2°50.612 324.9 13.6 326 14.8
2010-06-30 05:32:38 51°19.207 2°50.598 325 13.6 324 14.5
2010-06-30 05:32:44 51°19.225 2°50.578 324.9 13.6 325 14.4
2010-06-30 05:32:49 51°19.241 2°50.56 325.3 13.6 324 14.2
2010-06-30 05:32:53 51°19.253 2°50.547 324.9 13.6 325 14.3
2010-06-30 05:32:59 51°19.272 2°50.526 325.2 13.6 325 14
2010-06-30 05:33:04 51°19.287 2°50.509 325.4 13.6 326 13.8
2010-06-30 05:33:09 51°19.303 2°50.492 325.5 13.6 325 14
2010-06-30 05:33:14 51°19.318 2°50.475 325.6 13.6 325 13.6
2010-06-30 05:33:18 51°19.331 2°50.461 325.7 13.6 325 13.6
2010-06-30 05:33:24 51°19.349 2°50.44 325.3 13.6 324 13.6
2010-06-30 05:33:29 51°19.365 2°50.423 325.1 13.6 325 13.2
2010-06-30 05:33:33 51°19.377 2°50.409 325.2 13.6 325 12.9
2010-06-30 05:33:39 51°19.395 2°50.388 325.2 13.6 325 12.7
2010-06-30 05:33:44 51°19.411 2°50.371 325.5 13.5 325 12.7
2010-06-30 05:33:49 51°19.426 2°50.354 325.7 13.5 326 12.6
2010-06-30 05:33:53 51°19.438 2°50.34 325.7 13.6 324 12.5
2010-06-30 05:33:59 51°19.457 2°50.319 325.6 13.6 325 12.5
2010-06-30 05:34:04 51°19.473 2°50.302 325.2 13.6 325 12.7
2010-06-30 05:34:09 51°19.488 2°50.285 325.2 13.6 324 13
2010-06-30 05:34:13 51°19.5 2°50.271 325.2 13.6 325 13
2010-06-30 05:34:19 51°19.519 2°50.25 325.1 13.6 324 12.9
2010-06-30 05:34:24 51°19.534 2°50.232 325.1 13.7 325 13
2010-06-30 05:34:29 51°19.55 2°50.215 325.3 13.6 325 13
2010-06-30 05:34:34 51°19.565 2°50.198 325.4 13.7 325 13.1
2010-06-30 05:34:38 51°19.578 2°50.184 325.2 13.7 325 13.2
2010-06-30 05:34:44 51°19.596 2°50.163 325.6 13.7 325 13.5
2010-06-30 05:34:49 51°19.612 2°50.145 325.3 13.7 324 13.7
2010-06-30 05:34:53 51°19.624 2°50.131 325.2 13.7 325 14
2010-06-30 05:34:58 51°19.64 2°50.114 325.5 13.7 325 14.2
2010-06-30 05:35:04 51°19.658 2°50.093 325.2 13.7 325 14.7
2010-06-30 05:35:09 51°19.674 2°50.076 325.4 13.7 325 15
2010-06-30 05:35:14 51°19.689 2°50.059 325.2 13.7 325 15.1
2010-06-30 05:35:18 51°19.702 2°50.045 325.5 13.7 325 15.4
2010-06-30 05:35:24 51°19.721 2°50.024 325.1 13.7 325 15.6
2010-06-30 05:35:29 51°19.736 2°50.007 325.2 13.6 325 15.7
2010-06-30 05:35:33 51°19.749 2°49.993 325.6 13.7 325 15.8
2010-06-30 05:35:39 51°19.767 2°49.972 325.1 13.7 325 16
2010-06-30 05:35:44 51°19.782 2°49.954 325.2 13.7 325 16
2010-06-30 05:35:49 51°19.798 2°49.937 325.4 13.7 325 16.2
2010-06-30 05:35:54 51°19.814 2°49.92 325.5 13.7 326 16.2
2010-06-30 05:35:59 51°19.829 2°49.903 325.6 13.7 326 16.2
2010-06-30 05:36:04 51°19.845 2°49.885 325.3 13.7 325 16.3
2010-06-30 05:36:09 51°19.86 2°49.868 325.2 13.6 325 16.2
2010-06-30 05:36:13 51°19.873 2°49.854 324.7 13.6 325 16.4
2010-06-30 05:36:19 51°19.892 2°49.834 325.5 13.7 326 16.8
2010-06-30 05:36:24 51°19.907 2°49.817 325.3 13.6 325 17
2010-06-30 05:36:29 51°19.923 2°49.8 325.2 13.7 326 17.2
2010-06-30 05:36:33 51°19.936 2°49.786 325.8 13.7 326 17.4
2010-06-30 05:36:38 51°19.951 2°49.769 325.5 13.7 326 17.9
2010-06-30 05:36:44 51°19.97 2°49.749 325.8 13.7 326 18.1
2010-06-30 05:36:49 51°19.986 2°49.732 325.7 13.7 326 18.2
2010-06-30 05:36:53 51°19.999 2°49.718 325.6 13.7 325 18.4
2010-06-30 05:36:58 51°20.015 2°49.702 325.7 13.7 327 18.6
2010-06-30 05:37:04 51°20.034 2°49.681 325.4 13.8 326 19
2010-06-30 05:37:09 51°20.05 2°49.665 325.5 13.8 327 19
2010-06-30 05:37:13 51°20.062 2°49.651 325.6 13.8 327 19.3
2010-06-30 05:37:19 51°20.082 2°49.631 325.6 13.8 327 19.6
2010-06-30 05:37:24 51°20.097 2°49.614 325.3 13.8 325 19.8
2010-06-30 05:37:29 51°20.113 2°49.597 325.2 13.7 327 20
2010-06-30 05:37:34 51°20.129 2°49.58 324.8 13.7 326 20.3
2010-06-30 05:37:38 51°20.142 2°49.567 325.3 13.7 327 20.5
2010-06-30 05:37:44 51°20.161 2°49.547 325.2 13.7 326 20.8
2010-06-30 05:37:49 51°20.176 2°49.53 325.2 13.7 326 20.9
2010-06-30 05:37:53 51°20.189 2°49.517 325.1 13.6 326 21.3
2010-06-30 05:37:59 51°20.208 2°49.496 324.5 13.6 325 21.6
2010-06-30 05:38:04 51°20.223 2°49.479 324.5 13.6 326 21.7
2010-06-30 05:38:09 51°20.239 2°49.462 324.8 13.6 325 22
2010-06-30 05:38:13 51°20.252 2°49.449 325 13.6 327 22.3
2010-06-30 05:38:18 51°20.267 2°49.432 325.4 13.6 326 22.5
2010-06-30 05:38:24 51°20.286 2°49.412 325.4 13.6 326 22.5
2010-06-30 05:38:29 51°20.302 2°49.395 325.3 13.6 326 22.6
2010-06-30 05:38:33 51°20.314 2°49.382 325.2 13.6 327 22.9
2010-06-30 05:38:39 51°20.333 2°49.361 325.3 13.6 325 22.9
2010-06-30 05:38:44 51°20.348 2°49.344 325.1 13.6 326 23.2
2010-06-30 05:38:49 51°20.364 2°49.327 324.8 13.6 326 23.2
2010-06-30 05:38:53 51°20.376 2°49.314 325.2 13.5 326 23.3
2010-06-30 05:38:58 51°20.392 2°49.296 325.2 13.6 325 23.5
2010-06-30 05:39:04 51°20.411 2°49.277 325.2 13.6 326 23.3
2010-06-30 05:39:09 51°20.426 2°49.26 325.3 13.5 327 23.5
2010-06-30 05:39:13 51°20.439 2°49.247 325.6 13.5 327 23.5
2010-06-30 05:39:19 51°20.458 2°49.226 325.7 13.5 325 23.5
2010-06-30 05:39:24 51°20.473 2°49.21 325.3 13.5 327 23.4
2010-06-30 05:39:29 51°20.489 2°49.193 325.6 13.5 326 23.5
2010-06-30 05:39:34 51°20.505 2°49.177 325.5 13.5 326 23.6
2010-06-30 05:39:38 51°20.517 2°49.163 325.2 13.5 326 23.5
2010-06-30 05:39:44 51°20.536 2°49.143 325.1 13.6 325 23.6
2010-06-30 05:39:49 51°20.551 2°49.126 325.2 13.6 326 23.6
2010-06-30 05:39:53 51°20.564 2°49.112 324.7 13.5 325 23.5
2010-06-30 05:39:59 51°20.582 2°49.092 324.8 13.5 325 23.5
2010-06-30 05:40:04 51°20.598 2°49.075 324.5 13.6 325 23.5
2010-06-30 05:40:09 51°20.613 2°49.058 324.6 13.6 326 23.5
2010-06-30 05:40:13 51°20.625 2°49.044 324.8 13.5 326 23.4
2010-06-30 05:40:18 51°20.641 2°49.028 325.2 13.5 326 23.3
2010-06-30 05:40:24 51°20.66 2°49.007 325.2 13.5 326 23.5
2010-06-30 05:40:29 51°20.675 2°48.99 325.1 13.5 325 23.3
2010-06-30 05:40:33 51°20.688 2°48.977 325 13.6 326 23.2
2010-06-30 05:40:39 51°20.706 2°48.957 325.3 13.6 327 23.3
2010-06-30 05:40:44 51°20.722 2°48.94 325.3 13.6 326 23
2010-06-30 05:40:49 51°20.738 2°48.924 325.4 13.6 327 23
2010-06-30 05:40:53 51°20.75 2°48.91 325.4 13.5 325 23
2010-06-30 05:40:58 51°20.766 2°48.893 325.3 13.6 327 23.1
2010-06-30 05:41:04 51°20.784 2°48.873 325.2 13.6 325 22.9
2010-06-30 05:41:09 51°20.8 2°48.856 325.2 13.5 326 23
2010-06-30 05:41:13 51°20.812 2°48.842 324.9 13.5 325 22.9
2010-06-30 05:41:18 51°20.828 2°48.825 325.2 13.5 325 22.6
2010-06-30 05:41:24 51°20.847 2°48.805 324.9 13.6 326 22.7
2010-06-30 05:41:29 51°20.862 2°48.788 325.2 13.6 327 22.4
2010-06-30 05:41:34 51°20.878 2°48.771 325.8 13.6 325 22.4
2010-06-30 05:41:38 51°20.89 2°48.758 325.2 13.6 326 22.2
2010-06-30 05:41:44 51°20.909 2°48.737 325.2 13.5 325 21.9
2010-06-30 05:41:49 51°20.924 2°48.72 325.1 13.5 325 21.8
2010-06-30 05:41:53 51°20.937 2°48.707 325 13.5 326 21.8
2010-06-30 05:41:58 51°20.952 2°48.69 325.5 13.6 325 21.6
2010-06-30 05:42:04 51°20.97 2°48.669 324.9 13.5 326 21.6
2010-06-30 05:42:09 51°20.986 2°48.652 325.1 13.5 326 21.6
2010-06-30 05:42:14 51°21.001 2°48.635 325.1 13.5 325 21.6
2010-06-30 05:42:18 51°21.014 2°48.622 325.4 13.6 326 21.7
2010-06-30 05:42:24 51°21.033 2°48.602 325.7 13.6 326 21.5
2010-06-30 05:42:29 51°21.048 2°48.585 325.8 13.5 326 21.1
2010-06-30 05:42:33 51°21.061 2°48.572 326.6 13.5 328 21.4
2010-06-30 05:42:39 51°21.08 2°48.552 326.9 13.5 327 21.3
2010-06-30 05:42:44 51°21.096 2°48.537 327.5 13.6 330 21.2
2010-06-30 05:42:49 51°21.111 2°48.521 328.3 13.5 327 21.1
2010-06-30 05:42:53 51°21.125 2°48.509 328.1 13.5 329 20.9
2010-06-30 05:42:59 51°21.143 2°48.489 328.2 13.6 327 20.9
2010-06-30 05:43:04 51°21.16 2°48.474 328 13.6 329 21
2010-06-30 05:43:09 51°21.176 2°48.458 328.2 13.6 328 21.4
2010-06-30 05:43:13 51°21.189 2°48.445 328.5 13.6 329 21.3
2010-06-30 05:43:18 51°21.205 2°48.43 328.9 13.6 329 21.5
2010-06-30 05:43:24 51°21.224 2°48.411 329 13.7 329 21.5
2010-06-30 05:43:29 51°21.24 2°48.395 328.6 13.6 328 21.8
2010-06-30 05:43:34 51°21.256 2°48.379 328.6 13.6 328 21.9
2010-06-30 05:43:38 51°21.269 2°48.366 328.4 13.6 328 22
2010-06-30 05:43:44 51°21.288 2°48.348 328.2 13.7 329 22.4
2010-06-30 05:43:49 51°21.305 2°48.331 328.7 13.7 328 22.3
2010-06-30 05:43:53 51°21.317 2°48.319 328.4 13.6 328 22.5
2010-06-30 05:43:58 51°21.334 2°48.303 328.4 13.6 329 22.2
2010-06-30 05:44:04 51°21.353 2°48.284 328.9 13.6 328 22.4
2010-06-30 05:44:09 51°21.369 2°48.268 328.8 13.7 328 22.3
2010-06-30 05:44:14 51°21.385 2°48.252 328.6 13.7 328 22.4
2010-06-30 05:44:18 51°21.398 2°48.239 327.7 13.7 328 22.9
2010-06-30 05:44:24 51°21.417 2°48.22 328.4 13.6 328 22.9
2010-06-30 05:44:29 51°21.433 2°48.204 328.7 13.6 329 23.3
2010-06-30 05:44:34 51°21.449 2°48.188 328.7 13.6 328 23.5
2010-06-30 05:44:38 51°21.462 2°48.176 328.5 13.7 329 23.5
2010-06-30 05:44:44 51°21.481 2°48.156 328.7 13.7 327 23.6
2010-06-30 05:44:49 51°21.498 2°48.141 328.5 13.7 329 23.8
2010-06-30 05:44:53 51°21.51 2°48.128 328.4 13.6 327 23.7
2010-06-30 05:44:59 51°21.529 2°48.108 328.1 13.6 327 24
2010-06-30 05:45:04 51°21.545 2°48.093 328.2 13.6 328 24.1
2010-06-30 05:45:09 51°21.561 2°48.077 328.5 13.6 328 23.5
2010-06-30 05:45:13 51°21.574 2°48.064 328.4 13.5 328 23.9
2010-06-30 05:45:19 51°21.593 2°48.044 328.3 13.6 327 23.8
2010-06-30 05:45:24 51°21.609 2°48.029 328.2 13.5 328 23.9
2010-06-30 05:45:29 51°21.624 2°48.012 328.2 13.5 327 24.1
2010-06-30 05:45:33 51°21.637 2°48 328.1 13.5 328 24.1
2010-06-30 05:45:38 51°21.653 2°47.984 328.2 13.5 328 23.9
2010-06-30 05:45:44 51°21.672 2°47.965 328.7 13.6 329 24.2
2010-06-30 05:45:49 51°21.688 2°47.948 328.9 13.6 327 23.9
2010-06-30 05:45:53 51°21.701 2°47.936 328.5 13.6 329 23.9
2010-06-30 05:45:58 51°21.716 2°47.92 328.5 13.5 328 24.1
2010-06-30 05:46:04 51°21.736 2°47.901 328.9 13.6 328 24.3
2010-06-30 05:46:09 51°21.752 2°47.885 328.7 13.6 328 24
2010-06-30 05:46:13 51°21.765 2°47.872 328.7 13.7 327 24.3
2010-06-30 05:46:19 51°21.784 2°47.853 328.2 13.7 328 24.3
2010-06-30 05:46:24 51°21.8 2°47.836 328.7 13.7 327 24.5
2010-06-30 05:46:29 51°21.816 2°47.82 328.1 13.7 327 24.3
2010-06-30 05:46:34 51°21.832 2°47.804 328.1 13.7 328 24.3
2010-06-30 05:46:38 51°21.845 2°47.791 328.2 13.7 329 24.3
2010-06-30 05:46:44 51°21.864 2°47.772 328.6 13.7 328 24.2
2010-06-30 05:46:49 51°21.881 2°47.757 328.2 13.7 329 24.1
2010-06-30 05:46:53 51°21.894 2°47.744 328.9 13.8 329 24.3
2010-06-30 05:46:59 51°21.914 2°47.725 328.6 13.8 329 24.1
2010-06-30 05:47:04 51°21.93 2°47.71 328.8 13.8 329 24.2
2010-06-30 05:47:09 51°21.947 2°47.694 329.3 13.8 329 24.4
2010-06-30 05:47:13 51°21.96 2°47.681 328.6 13.8 329 24.3
2010-06-30 05:47:19 51°21.979 2°47.662 328.4 13.8 329 24.4
2010-06-30 05:47:24 51°21.996 2°47.646 328.3 13.8 329 24.6
2010-06-30 05:47:29 51°22.012 2°47.631 328.7 13.9 329 24.7
2010-06-30 05:47:33 51°22.026 2°47.618 328.8 13.9 330 24.6
2010-06-30 05:47:39 51°22.045 2°47.599 328.6 13.8 329 24.6
2010-06-30 05:47:44 51°22.062 2°47.584 328.7 13.9 329 24.4
2010-06-30 05:47:49 51°22.078 2°47.568 328.2 13.8 329 24.5
2010-06-30 05:47:53 51°22.092 2°47.555 328.1 13.9 329 24.2
2010-06-30 05:47:58 51°22.107 2°47.539 327.6 13.7 329 24.2
2010-06-30 05:48:04 51°22.127 2°47.52 328.1 13.7 328 23.7
2010-06-30 05:48:09 51°22.143 2°47.505 328.2 13.8 330 23.8
2010-06-30 05:48:13 51°22.157 2°47.493 328.6 13.8 329 23.7
2010-06-30 05:48:19 51°22.176 2°47.474 328.6 13.7 330 23.7
2010-06-30 05:48:24 51°22.192 2°47.458 328.3 13.7 329 23
2010-06-30 05:48:29 51°22.209 2°47.442 328.2 13.7 329 22.3
2010-06-30 05:48:34 51°22.225 2°47.427 328 13.7 329 21.8
2010-06-30 05:48:38 51°22.238 2°47.415 328.1 13.7 329 21.5
2010-06-30 05:48:44 51°22.258 2°47.396 328 13.7 329 20.5
2010-06-30 05:48:49 51°22.274 2°47.381 328.1 13.7 330 19.8
2010-06-30 05:48:53 51°22.287 2°47.369 328.5 13.7 330 20
2010-06-30 05:48:59 51°22.307 2°47.35 328 13.7 329 20.6
2010-06-30 05:49:04 51°22.323 2°47.334 328.2 13.7 329 20
2010-06-30 05:49:09 51°22.34 2°47.319 327.9 13.7 329 19.9
2010-06-30 05:49:14 51°22.356 2°47.303 328.1 13.7 329 20
2010-06-30 05:49:18 51°22.369 2°47.291 328.3 13.8 330 19.9
2010-06-30 05:49:24 51°22.389 2°47.272 328.2 13.8 329 19.4
2010-06-30 05:49:29 51°22.405 2°47.257 328.2 13.7 329 19.5
2010-06-30 05:49:33 51°22.418 2°47.244 328 13.8 329 19.4
2010-06-30 05:49:39 51°22.438 2°47.225 328.1 13.7 329 19.3
2010-06-30 05:49:44 51°22.454 2°47.209 328.3 13.7 329 19.2
2010-06-30 05:49:49 51°22.47 2°47.194 328.2 13.7 329 18.8
2010-06-30 05:49:53 51°22.483 2°47.181 328.2 13.8 329 18.5
2010-06-30 05:49:59 51°22.503 2°47.163 328.2 13.8 329 18.2
2010-06-30 05:50:04 51°22.519 2°47.147 328.3 13.7 330 18.3
2010-06-30 05:50:09 51°22.536 2°47.132 328.4 13.7 330 17.8
2010-06-30 05:50:14 51°22.553 2°47.118 329 13.6 332 17.9
2010-06-30 05:50:18 51°22.567 2°47.108 331.9 13.8 335 17.2
2010-06-30 05:50:24 51°22.588 2°47.094 334.7 13.7 339 16.1
2010-06-30 05:50:29 51°22.605 2°47.082 337.4 13.7 337 16.3
2010-06-30 05:50:33 51°22.619 2°47.073 338.5 13.7 338 17.5
2010-06-30 05:50:38 51°22.636 2°47.058 334.9 13.6 329 18.1
2010-06-30 05:50:44 51°22.656 2°47.041 331.7 13.6 331 18.6
2010-06-30 05:50:49 51°22.671 2°47.024 329.2 13.6 327 18.6
2010-06-30 05:50:53 51°22.684 2°47.011 327.1 13.6 327 18.6
2010-06-30 05:50:59 51°22.701 2°46.989 325.2 13.6 322 18.6
2010-06-30 05:51:04 51°22.717 2°46.972 323.9 13.6 324 18.5
2010-06-30 05:51:09 51°22.731 2°46.953 322.3 13.6 321 17.9
2010-06-30 05:51:14 51°22.746 2°46.934 321.2 13.5 321 17.9
2010-06-30 05:51:18 51°22.758 2°46.918 320.7 13.5 320 18.6
2010-06-30 05:51:24 51°22.774 2°46.894 319.2 13.6 318 18.8
2010-06-30 05:51:29 51°22.788 2°46.874 317.2 13.5 317 19.2
2010-06-30 05:51:33 51°22.799 2°46.857 316.1 13.5 315 19.6
2010-06-30 05:51:39 51°22.815 2°46.832 315.3 13.4 316 20.3
2010-06-30 05:51:44 51°22.827 2°46.81 314.5 13.5 314 21
2010-06-30 05:51:49 51°22.841 2°46.789 313.9 13.5 314 21.4
2010-06-30 05:51:53 51°22.851 2°46.771 313.2 13.5 313 22.3
2010-06-30 05:51:59 51°22.866 2°46.745 312.8 13.5 313 22.4
2010-06-30 05:52:04 51°22.879 2°46.723 312.4 13.5 312 22.3
2010-06-30 05:52:09 51°22.892 2°46.701 312.3 13.5 313 22.3
2010-06-30 05:52:13 51°22.902 2°46.683 312.7 13.6 314 22.5
2010-06-30 05:52:18 51°22.915 2°46.661 312.7 13.5 313 22.6
2010-06-30 05:52:24 51°22.93 2°46.635 312.9 13.5 313 22.8
2010-06-30 05:52:29 51°22.943 2°46.612 312.8 13.6 312 23.3
2010-06-30 05:52:33 51°22.953 2°46.595 312.5 13.6 313 23.9
2010-06-30 05:52:38 51°22.966 2°46.572 312.4 13.6 312 24
2010-06-30 05:52:44 51°22.981 2°46.547 312.5 13.6 313 23.5
2010-06-30 05:52:49 51°22.994 2°46.525 312.9 13.6 313 22.6
2010-06-30 05:52:54 51°23.007 2°46.503 313 13.6 313 20.7
2010-06-30 05:52:58 51°23.017 2°46.485 312.9 13.6 313 19.4
2010-06-30 05:53:04 51°23.033 2°46.459 313.3 13.6 314 21.3
2010-06-30 05:53:09 51°23.046 2°46.437 313 13.6 313 22.4
2010-06-30 05:53:13 51°23.057 2°46.42 312.9 13.6 314 23.3
2010-06-30 05:53:19 51°23.072 2°46.394 312.9 13.6 313 23.9
2010-06-30 05:53:24 51°23.085 2°46.372 313.1 13.6 313 24.4
2010-06-30 05:53:29 51°23.098 2°46.35 313.3 13.6 313 24.8
2010-06-30 05:53:34 51°23.11 2°46.327 312.3 13.6 312 24.6
2010-06-30 05:53:38 51°23.12 2°46.309 311.6 13.5 312 25.6
2010-06-30 05:53:44 51°23.134 2°46.281 311.1 13.5 310 25.6
2010-06-30 05:53:49 51°23.147 2°46.259 310.5 13.6 310 25.9
2010-06-30 05:53:53 51°23.157 2°46.24 310.1 13.6 310 26.1
2010-06-30 05:53:59 51°23.171 2°46.213 310 13.6 311 25.3
2010-06-30 05:54:04 51°23.184 2°46.19 309.8 13.6 311 23.6
2010-06-30 05:54:09 51°23.196 2°46.167 310 13.5 310 24.1
2010-06-30 05:54:13 51°23.205 2°46.149 310 13.4 311 24.3
2010-06-30 05:54:18 51°23.217 2°46.127 310 13.5 310 25.1
2010-06-30 05:54:24 51°23.232 2°46.099 309.6 13.5 310 25.6
2010-06-30 05:54:29 51°23.244 2°46.076 309.6 13.6 310 25.9
2010-06-30 05:54:33 51°23.253 2°46.057 309.3 13.6 309 26.1
2010-06-30 05:54:38 51°23.265 2°46.034 309.3 13.6 310 26.6
2010-06-30 05:54:44 51°23.28 2°46.007 309.6 13.5 310 26.3
2010-06-30 05:54:49 51°23.292 2°45.983 309.4 13.5 310 27
2010-06-30 05:54:54 51°23.303 2°45.96 309.3 13.5 310 26.7
2010-06-30 05:54:58 51°23.313 2°45.942 309.4 13.5 310 27.2
2010-06-30 05:55:04 51°23.327 2°45.915 309.7 13.5 310 27
2010-06-30 05:55:09 51°23.339 2°45.892 310 13.6 311 26.8
2010-06-30 05:55:14 51°23.351 2°45.87 310 13.6 310 26.2
2010-06-30 05:55:18 51°23.361 2°45.851 310 13.6 311 26.3
2010-06-30 05:55:24 51°23.376 2°45.824 309.7 13.6 310 27
2010-06-30 05:55:29 51°23.388 2°45.801 309.7 13.6 310 27.4
2010-06-30 05:55:33 51°23.398 2°45.782 309.9 13.6 310 27.4
2010-06-30 05:55:39 51°23.412 2°45.755 309.6 13.6 311 27.1
2010-06-30 05:55:44 51°23.424 2°45.732 309.6 13.6 310 27.1
2010-06-30 05:55:49 51°23.437 2°45.709 310 13.6 311 27.3
2010-06-30 05:55:53 51°23.446 2°45.69 309.4 13.6 310 27.6
2010-06-30 05:55:58 51°23.459 2°45.668 309.7 13.6 311 27.5
2010-06-30 05:56:04 51°23.474 2°45.64 309.6 13.6 310 27.6
2010-06-30 05:56:09 51°23.486 2°45.617 309.8 13.6 311 27.4
2010-06-30 05:56:13 51°23.496 2°45.599 309.3 13.5 310 27.2
2010-06-30 05:56:19 51°23.51 2°45.571 309.9 13.6 311 27.3
2010-06-30 05:56:24 51°23.522 2°45.548 309.7 13.6 310 27.6
2010-06-30 05:56:29 51°23.534 2°45.526 310.1 13.7 312 27.8
2010-06-30 05:56:33 51°23.543 2°45.508 310 13.7 312 27.8
2010-06-30 05:56:38 51°23.555 2°45.485 310 13.6 312 27.7
2010-06-30 05:56:44 51°23.569 2°45.458 309.9 13.5 311 27.9
2010-06-30 05:56:49 51°23.581 2°45.435 310.1 13.5 311 27.5
2010-06-30 05:56:53 51°23.59 2°45.417 310 13.5 311 27.7
2010-06-30 05:56:58 51°23.602 2°45.394 309.9 13.5 311 27.4
2010-06-30 05:57:04 51°23.619 2°45.368 310 13.5 311 27.7
2010-06-30 05:57:09 51°23.631 2°45.345 309.9 13.4 311 27.4
2010-06-30 05:57:13 51°23.641 2°45.327 309.4 13.4 310 27.2
2010-06-30 05:57:18 51°23.653 2°45.305 310 13.4 312 27.8
2010-06-30 05:57:24 51°23.668 2°45.277 310 13.4 310 27.4
2010-06-30 05:57:29 51°23.68 2°45.255 309.8 13.4 311 27.6
2010-06-30 05:57:33 51°23.69 2°45.237 309.9 13.4 311 27.7
2010-06-30 05:57:38 51°23.701 2°45.214 309.7 13.3 310 27.4
2010-06-30 05:57:44 51°23.717 2°45.188 310.2 13.4 310 27.2
2010-06-30 05:57:49 51°23.73 2°45.166 310 13.3 311 27.4
2010-06-30 05:57:53 51°23.74 2°45.149 310.3 13.3 312 27.4
2010-06-30 05:57:59 51°23.755 2°45.122 310.2 13.4 310 27.7
2010-06-30 05:58:04 51°23.767 2°45.099 310 13.3 311 26.4
2010-06-30 05:58:09 51°23.779 2°45.077 309.8 13.3 310 26.2
2010-06-30 05:58:14 51°23.791 2°45.055 310 13.3 311 26.5
2010-06-30 05:58:18 51°23.8 2°45.036 309.6 13.3 309 26.6
2010-06-30 05:58:24 51°23.814 2°45.009 308.6 13.3 309 26.8
2010-06-30 05:58:29 51°23.825 2°44.985 308 13.3 308 26.7
2010-06-30 05:58:33 51°23.834 2°44.967 307.3 13.3 308 27.8
2010-06-30 05:58:39 51°23.846 2°44.936 306.2 13.3 307 27.2
2010-06-30 05:58:44 51°23.857 2°44.913 305.9 13.5 307 27.4
2010-06-30 05:58:49 51°23.869 2°44.89 305.5 13.5 306 27.2
2010-06-30 05:58:53 51°23.878 2°44.871 305 13.3 306 27.4
2010-06-30 05:58:58 51°23.888 2°44.847 304.6 13.3 305 27.3
2010-06-30 05:59:04 51°23.901 2°44.817 305 13.3 305 27.4
2010-06-30 05:59:09 51°23.911 2°44.793 305.2 13.3 306 27.6
2010-06-30 05:59:14 51°23.922 2°44.769 304.8 13.3 305 27.4
2010-06-30 05:59:18 51°23.931 2°44.75 304.8 13.3 306 27.2
2010-06-30 05:59:24 51°23.943 2°44.721 304.7 13.3 306 27.4
2010-06-30 05:59:29 51°23.955 2°44.697 304.9 13.3 306 27.4
2010-06-30 05:59:33 51°23.963 2°44.678 304.8 13.3 305 27.1
2010-06-30 05:59:38 51°23.974 2°44.654 304.9 13.3 306 26.5
2010-06-30 05:59:44 51°23.986 2°44.625 305 13.3 305 26.7
2010-06-30 05:59:49 51°23.995 2°44.601 304.8 13.3 305 27
2010-06-30 05:59:54 51°24.006 2°44.576 304.9 13.3 306 27.2
2010-06-30 05:59:58 51°24.014 2°44.557 304.5 13.3 305 27.1
2010-06-30 06:00:04 51°24.027 2°44.527 304.7 13.3 305 27.1
2010-06-30 06:00:09 51°24.038 2°44.502 304.4 13.3 305 26.9
2010-06-30 06:00:14 51°24.048 2°44.478 304.5 13.3 305 27.5
2010-06-30 06:00:19 51°24.059 2°44.454 304.5 13.3 305 27.5
2010-06-30 06:00:24 51°24.069 2°44.43 304.4 13.3 306 27.6
2010-06-30 06:00:29 51°24.08 2°44.406 304.8 13.3 305 27.7
2010-06-30 06:00:33 51°24.088 2°44.386 304.7 13.3 305 25.4
2010-06-30 06:00:38 51°24.099 2°44.362 304.8 13.3 306 22.9
2010-06-30 06:00:44 51°24.112 2°44.334 304.9 13.3 305 24.4
2010-06-30 06:00:49 51°24.123 2°44.31 305 13.3 305 24.8
2010-06-30 06:00:53 51°24.131 2°44.29 305 13.3 306 24.9
2010-06-30 06:00:59 51°24.144 2°44.262 305.3 13.3 306 25.9
2010-06-30 06:01:04 51°24.155 2°44.238 305.3 13.4 305 26.1
2010-06-30 06:01:09 51°24.166 2°44.214 305.4 13.3 306 26.5
2010-06-30 06:01:13 51°24.175 2°44.195 305.3 13.3 305 26.6
2010-06-30 06:01:18 51°24.186 2°44.171 305 13.3 306 26.2
2010-06-30 06:01:24 51°24.198 2°44.141 304.8 13.3 305 25.8
2010-06-30 06:01:29 51°24.209 2°44.118 304.7 13.3 306 25.3
2010-06-30 06:01:33 51°24.217 2°44.098 304.9 13.3 304 24.9
2010-06-30 06:01:38 51°24.228 2°44.074 305.1 13.3 306 25.2
2010-06-30 06:01:43 51°24.239 2°44.05 305.1 13.3 306 26.1
2010-06-30 06:01:49 51°24.253 2°44.022 305.2 13.3 308 26.5
2010-06-30 06:01:53 51°24.263 2°44.004 308.6 13.4 311 26.5
2010-06-30 06:01:58 51°24.275 2°43.981 309.7 13.4 310 27.2
2010-06-30 06:02:03 51°24.287 2°43.959 311.8 13.4 313 27.7
2010-06-30 06:02:09 51°24.302 2°43.933 312.5 13.4 312 27.2
2010-06-30 06:02:13 51°24.313 2°43.916 314 13.4 316 26.8
2010-06-30 06:02:18 51°24.326 2°43.895 314.8 13.5 315 26.7
2010-06-30 06:02:24 51°24.343 2°43.871 316.3 13.4 318 26.7
2010-06-30 06:02:29 51°24.356 2°43.85 317.5 13.6 317 26.9
2010-06-30 06:02:34 51°24.368 2°43.83 318.6 13.5 319 26.7
2010-06-30 06:02:38 51°24.377 2°43.814 319.1 13.5 320 26.5
2010-06-30 06:02:44 51°24.394 2°43.791 320 13.5 321 26.1
2010-06-30 06:02:49 51°24.409 2°43.773 321.9 13.4 323 25.9
2010-06-30 06:02:54 51°24.429 2°43.756 322.8 13.7 322 25.6
2010-06-30 06:02:59 51°24.445 2°43.741 323.2 13.5 326 24.8
2010-06-30 06:03:04 51°24.459 2°43.722 323.8 13.6 323 24.2
2010-06-30 06:03:09 51°24.475 2°43.706 324.8 13.5 325 23.5
2010-06-30 06:03:13 51°24.487 2°43.692 325 13.5 325 23
2010-06-30 06:03:19 51°24.506 2°43.671 325.5 13.4 326 21.4
2010-06-30 06:03:24 51°24.522 2°43.655 326.2 13.5 327 20.3
2010-06-30 06:03:29 51°24.537 2°43.639 326.4 13.4 327 19.8
2010-06-30 06:03:33 51°24.55 2°43.626 326.7 13.5 327 19.9
2010-06-30 06:03:38 51°24.566 2°43.609 326.4 13.5 327 20.3
2010-06-30 06:03:44 51°24.585 2°43.59 326 13.5 327 21.1
2010-06-30 06:03:49 51°24.6 2°43.572 325.9 13.5 326 21.5
2010-06-30 06:03:53 51°24.613 2°43.559 326 13.6 326 21.1
2010-06-30 06:03:58 51°24.628 2°43.541 325.6 13.5 324 22
2010-06-30 06:04:04 51°24.646 2°43.52 324.5 13.5 325 21.9
2010-06-30 06:04:09 51°24.661 2°43.503 323.8 13.5 324 22.4
2010-06-30 06:04:13 51°24.674 2°43.489 323.4 13.5 323 21.9
2010-06-30 06:04:18 51°24.689 2°43.471 322.8 13.5 325 22.2
2010-06-30 06:04:24 51°24.707 2°43.45 322.5 13.5 323 22.9
2010-06-30 06:04:28 51°24.719 2°43.435 323.1 13.5 323 22.5
2010-06-30 06:04:33 51°24.734 2°43.418 322.3 13.5 323 22.8
2010-06-30 06:04:38 51°24.749 2°43.4 322.5 13.5 324 23.1
2010-06-30 06:04:44 51°24.767 2°43.379 322.4 13.5 324 21.4
2010-06-30 06:04:48 51°24.779 2°43.364 322.1 13.5 324 21.1
2010-06-30 06:04:53 51°24.794 2°43.347 322.5 13.5 324 22.3
2010-06-30 06:04:58 51°24.809 2°43.328 322.1 13.5 323 22
2010-06-30 06:05:04 51°24.827 2°43.307 322.1 13.5 323 22.2
2010-06-30 06:05:09 51°24.842 2°43.289 321.6 13.5 323 22.3
2010-06-30 06:05:13 51°24.854 2°43.274 321.7 13.5 323 22.5
2010-06-30 06:05:18 51°24.869 2°43.256 321.8 13.5 323 23.7
2010-06-30 06:05:24 51°24.887 2°43.234 321.6 13.5 323 23.1
2010-06-30 06:05:29 51°24.902 2°43.216 321.5 13.5 322 22.8
2010-06-30 06:05:33 51°24.914 2°43.202 321.6 13.5 323 22.7
2010-06-30 06:05:38 51°24.929 2°43.183 321.5 13.5 322 20.4
2010-06-30 06:05:44 51°24.946 2°43.162 321.6 13.5 324 22
2010-06-30 06:05:49 51°24.961 2°43.144 321.9 13.5 323 23.3
2010-06-30 06:05:53 51°24.974 2°43.129 322.1 13.6 323 23.5
2010-06-30 06:05:58 51°24.988 2°43.111 321.9 13.6 322 23.5
2010-06-30 06:06:04 51°25.006 2°43.089 321.6 13.6 322 23.6
2010-06-30 06:06:09 51°25.021 2°43.07 321.4 13.5 322 23.5
2010-06-30 06:06:13 51°25.033 2°43.055 321.3 13.5 322 21.8
2010-06-30 06:06:18 51°25.048 2°43.037 321.4 13.6 322 20.7
2010-06-30 06:06:24 51°25.066 2°43.015 321.7 13.6 323 19.8
2010-06-30 06:06:29 51°25.081 2°42.996 321.5 13.6 322 19.8
2010-06-30 06:06:33 51°25.093 2°42.982 321.9 13.6 323 20.7
2010-06-30 06:06:38 51°25.107 2°42.963 321.4 13.6 322 20
2010-06-30 06:06:44 51°25.125 2°42.941 321.1 13.6 322 21.8
2010-06-30 06:06:49 51°25.14 2°42.922 321.2 13.6 322 23.4
2010-06-30 06:06:54 51°25.155 2°42.903 320.9 13.6 321 23.7
2010-06-30 06:06:58 51°25.167 2°42.888 321.1 13.6 321 23.9
2010-06-30 06:07:04 51°25.185 2°42.866 321 13.6 322 22.9
2010-06-30 06:07:09 51°25.2 2°42.848 321.4 13.6 323 24.8
2010-06-30 06:07:13 51°25.212 2°42.833 321.7 13.6 322 24.9
2010-06-30 06:07:18 51°25.227 2°42.815 321.6 13.6 322 25.3
2010-06-30 06:07:24 51°25.245 2°42.793 321.5 13.6 322 25
2010-06-30 06:07:29 51°25.26 2°42.774 321.7 13.7 322 25
2010-06-30 06:07:33 51°25.272 2°42.76 321.1 13.6 323 24.7
2010-06-30 06:07:38 51°25.287 2°42.741 321.2 13.6 322 23.9
2010-06-30 06:07:44 51°25.305 2°42.72 321.6 13.6 323 23.4
2010-06-30 06:07:49 51°25.32 2°42.701 321.6 13.7 323 23.6
2010-06-30 06:07:53 51°25.332 2°42.687 321.6 13.6 323 24.1
2010-06-30 06:07:59 51°25.35 2°42.665 321.6 13.6 322 24.7
2010-06-30 06:08:04 51°25.365 2°42.647 321.4 13.6 323 24.9
2010-06-30 06:08:09 51°25.38 2°42.628 321.6 13.6 322 25.5
2010-06-30 06:08:13 51°25.392 2°42.613 321.4 13.6 322 25.4
2010-06-30 06:08:18 51°25.407 2°42.595 321.4 13.6 322 25.6
2010-06-30 06:08:23 51°25.421 2°42.576 321.1 13.6 321 25.5
2010-06-30 06:08:29 51°25.439 2°42.554 321 13.6 323 25.8
2010-06-30 06:08:33 51°25.451 2°42.539 321.5 13.6 322 25.7
2010-06-30 06:08:38 51°25.466 2°42.521 321.1 13.6 323 25.9
2010-06-30 06:08:44 51°25.485 2°42.499 321.7 13.7 322 25.6
2010-06-30 06:08:49 51°25.5 2°42.48 321.5 13.7 322 26.1
2010-06-30 06:08:53 51°25.511 2°42.465 321.2 13.6 321 26.4
2010-06-30 06:08:58 51°25.526 2°42.447 320.8 13.6 323 26.8
2010-06-30 06:09:04 51°25.544 2°42.425 320.9 13.6 322 26.8
2010-06-30 06:09:09 51°25.559 2°42.406 321.6 13.6 323 26.9
2010-06-30 06:09:13 51°25.571 2°42.391 321.2 13.6 322 25.8
2010-06-30 06:09:18 51°25.586 2°42.373 321.1 13.6 323 25.6
2010-06-30 06:09:24 51°25.604 2°42.351 321 13.6 321 25.2
2010-06-30 06:09:29 51°25.619 2°42.333 321.2 13.6 323 24
2010-06-30 06:09:33 51°25.631 2°42.318 321.3 13.6 323 24.7
2010-06-30 06:09:38 51°25.647 2°42.301 322.3 13.7 325 25.8
2010-06-30 06:09:44 51°25.665 2°42.279 322.7 13.6 323 26.3
2010-06-30 06:09:49 51°25.681 2°42.262 322.8 13.6 325 26.9
2010-06-30 06:09:53 51°25.693 2°42.248 323.1 13.6 323 27.6
2010-06-30 06:09:58 51°25.708 2°42.23 323.1 13.6 326 27.5
2010-06-30 06:10:04 51°25.727 2°42.209 323.6 13.5 324 27.4
2010-06-30 06:10:09 51°25.742 2°42.191 323.3 13.6 325 27.6
2010-06-30 06:10:13 51°25.754 2°42.177 323.4 13.6 324 27.7
2010-06-30 06:10:18 51°25.769 2°42.16 323 13.6 325 27.7
2010-06-30 06:10:24 51°25.788 2°42.138 323.4 13.6 323 28
2010-06-30 06:10:29 51°25.803 2°42.12 323.1 13.6 324 28.2
2010-06-30 06:10:33 51°25.815 2°42.106 323 13.6 323 28.2
2010-06-30 06:10:38 51°25.83 2°42.088 322.9 13.6 324 28.3
2010-06-30 06:10:44 51°25.849 2°42.067 323.3 13.6 324 28.6
2010-06-30 06:10:49 51°25.864 2°42.049 323.5 13.7 324 28.4
2010-06-30 06:10:53 51°25.876 2°42.034 323.2 13.7 323 28.2
2010-06-30 06:10:58 51°25.891 2°42.016 323.1 13.7 323 28.6
2010-06-30 06:11:03 51°25.906 2°41.998 322.7 13.6 322 28.3
2010-06-30 06:11:09 51°25.925 2°41.977 323.4 13.7 324 28.3
2010-06-30 06:11:13 51°25.937 2°41.961 323 13.6 322 27.7
2010-06-30 06:11:18 51°25.952 2°41.944 323 13.7 324 27.9
2010-06-30 06:11:24 51°25.97 2°41.921 323.3 13.7 322 27.4
2010-06-30 06:11:28 51°25.983 2°41.907 323 13.7 324 27.6
2010-06-30 06:11:33 51°25.998 2°41.889 323.4 13.7 322 27.6
2010-06-30 06:11:38 51°26.013 2°41.87 323.1 13.8 323 27.9
2010-06-30 06:11:44 51°26.031 2°41.848 323.1 13.8 323 27.4
2010-06-30 06:11:49 51°26.046 2°41.829 323.1 13.8 323 27.1
2010-06-30 06:11:53 51°26.058 2°41.815 323.6 13.8 322 26.4
2010-06-30 06:11:58 51°26.073 2°41.796 323.2 13.8 323 27.2
2010-06-30 06:12:04 51°26.092 2°41.774 323.2 13.7 324 27.9
2010-06-30 06:12:09 51°26.107 2°41.756 323.2 13.7 322 27.8
2010-06-30 06:12:13 51°26.119 2°41.741 323.2 13.8 324 28.4
2010-06-30 06:12:18 51°26.135 2°41.723 323.4 13.7 322 28.4
2010-06-30 06:12:24 51°26.153 2°41.701 323.1 13.7 323 28.9
2010-06-30 06:12:29 51°26.168 2°41.682 323.5 13.8 323 28.7
2010-06-30 06:12:33 51°26.181 2°41.668 323.7 13.8 324 29.3
2010-06-30 06:12:38 51°26.196 2°41.649 323.6 13.7 322 29.1
2010-06-30 06:12:44 51°26.214 2°41.628 323.8 13.8 325 29.3
2010-06-30 06:12:49 51°26.229 2°41.609 323.6 13.7 321 29.2
2010-06-30 06:12:53 51°26.241 2°41.595 323.5 13.7 324 29
2010-06-30 06:12:58 51°26.256 2°41.576 323.8 13.7 323 29.1
2010-06-30 06:13:04 51°26.275 2°41.555 323.7 13.7 324 29.3
2010-06-30 06:13:09 51°26.29 2°41.537 323.8 13.7 323 29.2
2010-06-30 06:13:13 51°26.302 2°41.522 323.8 13.7 323 29.1
2010-06-30 06:13:18 51°26.317 2°41.504 323.8 13.7 323 29
2010-06-30 06:13:24 51°26.335 2°41.482 323.5 13.7 323 29
2010-06-30 06:13:29 51°26.351 2°41.464 323.4 13.7 325 29.1
2010-06-30 06:13:33 51°26.363 2°41.449 323.7 13.7 322 29.1
2010-06-30 06:13:38 51°26.378 2°41.432 323.9 13.7 325 29.1
2010-06-30 06:13:44 51°26.396 2°41.409 323.4 13.6 322 29.2
2010-06-30 06:13:49 51°26.412 2°41.392 323.1 13.7 324 29.6
2010-06-30 06:13:53 51°26.424 2°41.377 323.4 13.6 323 29.5
2010-06-30 06:13:58 51°26.439 2°41.359 323.7 13.7 323 29.5
2010-06-30 06:14:04 51°26.457 2°41.337 323.6 13.7 323 29.7
2010-06-30 06:14:09 51°26.472 2°41.319 323.1 13.7 324 29.5
2010-06-30 06:14:13 51°26.484 2°41.304 323.5 13.7 322 29.5
2010-06-30 06:14:18 51°26.5 2°41.286 323.5 13.7 323 29.7
2010-06-30 06:14:24 51°26.518 2°41.264 323.5 13.7 323 29.9
2010-06-30 06:14:29 51°26.533 2°41.246 323.7 13.7 324 29.9
2010-06-30 06:14:33 51°26.546 2°41.232 324.1 13.7 325 30.2
2010-06-30 06:14:38 51°26.561 2°41.214 324.2 13.7 323 30
2010-06-30 06:14:44 51°26.58 2°41.193 324.2 13.7 324 29.9
2010-06-30 06:14:49 51°26.595 2°41.174 324.1 13.7 323 30.4
2010-06-30 06:14:53 51°26.607 2°41.16 323.6 13.7 324 30.7
2010-06-30 06:14:58 51°26.622 2°41.142 323.3 13.6 323 31
2010-06-30 06:15:04 51°26.64 2°41.121 323.8 13.6 324 31.8
2010-06-30 06:15:09 51°26.656 2°41.103 323.1 13.6 324 31.9
2010-06-30 06:15:13 51°26.668 2°41.088 323.8 13.6 323 31.8
2010-06-30 06:15:18 51°26.683 2°41.07 323.1 13.6 324 31.5
2010-06-30 06:15:24 51°26.701 2°41.049 323.1 13.6 323 31.5
2010-06-30 06:15:29 51°26.716 2°41.032 323.1 13.6 324 31.4
2010-06-30 06:15:33 51°26.729 2°41.017 323.7 13.6 324 30.8
2010-06-30 06:15:38 51°26.744 2°40.999 323.7 13.7 325 31.3
2010-06-30 06:15:44 51°26.762 2°40.978 323.1 13.7 323 31.2
2010-06-30 06:15:49 51°26.778 2°40.961 323.5 13.7 326 31.1
2010-06-30 06:15:53 51°26.79 2°40.947 324 13.7 324 31.7
2010-06-30 06:15:58 51°26.806 2°40.929 323.7 13.6 324 32
2010-06-30 06:16:04 51°26.824 2°40.907 323.2 13.7 324 32
2010-06-30 06:16:09 51°26.839 2°40.889 323.2 13.6 324 31.8
2010-06-30 06:16:13 51°26.852 2°40.875 323.4 13.6 323 31.7
2010-06-30 06:16:19 51°26.87 2°40.853 322.9 13.7 324 31.5
2010-06-30 06:16:24 51°26.885 2°40.835 323.3 13.7 324 31.8
2010-06-30 06:16:29 51°26.901 2°40.818 323.1 13.6 325 31.9
2010-06-30 06:16:33 51°26.913 2°40.804 323 13.6 324 31.9
2010-06-30 06:16:39 51°26.931 2°40.783 323.6 13.6 323 31.7
2010-06-30 06:16:44 51°26.946 2°40.765 323.6 13.6 325 32
2010-06-30 06:16:49 51°26.961 2°40.747 323.1 13.6 323 31.9
2010-06-30 06:16:53 51°26.973 2°40.733 323.1 13.6 324 32.1
2010-06-30 06:16:58 51°26.988 2°40.715 323 13.6 325 31.7
2010-06-30 06:17:04 51°27.007 2°40.694 323.8 13.6 324 31.2
2010-06-30 06:17:09 51°27.022 2°40.676 323.6 13.6 324 31.5
2010-06-30 06:17:13 51°27.035 2°40.661 323.1 13.6 323 32
2010-06-30 06:17:18 51°27.05 2°40.643 322.7 13.7 325 32
2010-06-30 06:17:24 51°27.068 2°40.622 323.4 13.6 323 31.9
2010-06-30 06:17:29 51°27.083 2°40.605 323.1 13.6 325 32.1
2010-06-30 06:17:33 51°27.096 2°40.591 323.8 13.7 325 32.9
2010-06-30 06:17:38 51°27.111 2°40.573 323.7 13.6 325 32.7
2010-06-30 06:17:43 51°27.126 2°40.556 323.6 13.6 324 32.3
2010-06-30 06:17:49 51°27.145 2°40.534 323.1 13.6 325 31.5
2010-06-30 06:17:53 51°27.157 2°40.52 323.4 13.6 323 31.3
2010-06-30 06:17:58 51°27.172 2°40.502 323 13.7 325 31.5
2010-06-30 06:18:04 51°27.191 2°40.481 323.1 13.7 324 31.4
2010-06-30 06:18:09 51°27.206 2°40.463 323.6 13.7 325 31.9
2010-06-30 06:18:13 51°27.219 2°40.448 323.1 13.6 324 31.7
2010-06-30 06:18:18 51°27.234 2°40.431 323.4 13.6 326 32.3
2010-06-30 06:18:24 51°27.252 2°40.41 323.7 13.6 323 32.3
2010-06-30 06:18:29 51°27.268 2°40.392 323.4 13.7 325 32.3
2010-06-30 06:18:33 51°27.28 2°40.378 323.3 13.6 324 32
2010-06-30 06:18:38 51°27.296 2°40.361 323.1 13.6 325 31.8
2010-06-30 06:18:44 51°27.314 2°40.339 323.2 13.6 323 31.9
2010-06-30 06:18:49 51°27.329 2°40.321 322.7 13.6 324 31.9
2010-06-30 06:18:53 51°27.342 2°40.307 323.5 13.7 325 31.7
2010-06-30 06:18:58 51°27.357 2°40.289 323 13.6 323 31.6
2010-06-30 06:19:04 51°27.375 2°40.268 322.8 13.6 324 32.1
2010-06-30 06:19:09 51°27.39 2°40.25 322.7 13.6 323 32.2
2010-06-30 06:19:13 51°27.402 2°40.235 322.8 13.7 323 32.5
2010-06-30 06:19:18 51°27.417 2°40.217 322.3 13.6 325 32.7
2010-06-30 06:19:24 51°27.436 2°40.196 323.3 13.7 323 32.8
2010-06-30 06:19:29 51°27.451 2°40.177 322.6 13.7 322 33
2010-06-30 06:19:33 51°27.463 2°40.164 322.8 13.7 326 33.4
2010-06-30 06:19:38 51°27.479 2°40.146 323.4 13.6 322 32.8